Time;durP1;ratioP1;P1;durP2;ratioP2;P2;SDS_P1;SDS_P2;PMS_P1;PMS_P2;Temp;Humidity;BMP_temperature;BMP_pressure;BME280_temperature;BME280_humidity;BME280_pressure;Samples;Min_cycle;Max_cycle;Signal;HPM_P1;HPM_P2
2022/11/10 00:00:56;;;;;;;13.00;4.50;;;9.10;99.90;;;;;;5139042;27;20054;-48
2022/11/10 00:03:23;;;;;;;15.82;4.78;;;9.00;99.90;;;;;;5138935;27;20047;-53
2022/11/10 00:05:48;;;;;;;13.82;4.95;;;9.00;99.90;;;;;;5138908;27;20034;-44
2022/11/10 00:08:14;;;;;;;16.42;5.20;;;8.90;99.90;;;;;;5120323;27;20050;-54
2022/11/10 00:10:56;;;;;;;21.08;5.93;;;8.90;99.90;;;;;;5138092;27;20042;-47
2022/11/10 00:13:24;;;;;;;19.48;5.50;;;8.80;99.90;;;;;;5138742;27;20118;-50
2022/11/10 00:18:34;;;;;;;20.45;5.50;;;8.70;99.90;;;;;;5137928;27;20126;-49
2022/11/10 00:21:07;;;;;;;22.80;5.88;;;8.80;99.90;;;;;;5134719;27;20138;-50
2022/11/10 00:23:33;;;;;;;19.55;6.13;;;8.80;99.90;;;;;;5127905;27;20043;-53
2022/11/10 00:25:59;;;;;;;15.75;5.35;;;8.70;99.90;;;;;;5118885;27;20035;-54
2022/11/10 00:28:27;;;;;;;17.88;5.93;;;8.70;99.90;;;;;;5138831;27;20050;-43
2022/11/10 00:30:53;;;;;;;19.48;5.22;;;8.70;99.90;;;;;;5137971;27;20053;-49
2022/11/10 00:33:19;;;;;;;24.98;6.40;;;8.70;99.90;;;;;;5138565;27;20460;-43
2022/11/10 00:35:44;;;;;;;23.27;5.75;;;8.70;99.90;;;;;;5137589;27;20532;-46
2022/11/10 00:38:10;;;;;;;18.98;6.00;;;8.60;99.90;;;;;;5137959;27;20421;-45
2022/11/10 00:40:35;;;;;;;21.40;5.43;;;8.70;99.90;;;;;;5115898;27;20138;-42
2022/11/10 00:43:01;;;;;;;19.77;5.13;;;8.70;99.90;;;;;;5129103;27;20043;-45
2022/11/10 00:45:27;;;;;;;24.83;5.80;;;8.60;99.90;;;;;;5134612;27;20057;-54
2022/11/10 00:47:52;;;;;;;21.58;5.57;;;8.60;99.90;;;;;;5137736;27;20046;-46
2022/11/10 00:50:18;;;;;;;16.95;5.18;;;8.70;99.90;;;;;;5118512;27;20081;-48
2022/11/10 00:52:44;;;;;;;22.65;6.00;;;8.60;99.90;;;;;;5137470;27;20041;-51
2022/11/10 00:55:09;;;;;;;20.02;5.65;;;8.60;99.90;;;;;;5131791;27;20175;-51
2022/11/10 00:57:35;;;;;;;23.60;6.22;;;8.60;99.90;;;;;;5136385;27;20443;-44
2022/11/10 01:00:00;;;;;;;22.83;5.63;;;8.60;99.90;;;;;;5119473;27;20421;-42
2022/11/10 01:02:27;;;;;;;25.20;6.25;;;8.50;99.90;;;;;;5127095;27;20039;-44
2022/11/10 01:04:52;;;;;;;19.33;6.10;;;8.50;99.90;;;;;;5136200;27;20046;-45
2022/11/10 01:07:18;;;;;;;21.13;6.50;;;8.50;99.90;;;;;;5137024;27;20042;-46
2022/11/10 01:09:43;;;;;;;21.85;5.57;;;8.50;99.90;;;;;;5118588;27;20062;-51
2022/11/10 01:12:09;;;;;;;21.05;6.43;;;8.40;99.90;;;;;;5136940;27;20814;-47
2022/11/10 01:14:35;;;;;;;20.67;6.78;;;8.40;99.90;;;;;;5137039;27;20079;-45
2022/11/10 01:17:00;;;;;;;19.27;6.47;;;8.40;99.90;;;;;;5138111;27;20377;-44
2022/11/10 01:19:26;;;;;;;21.33;7.10;;;8.40;99.90;;;;;;5137707;27;20046;-44
2022/11/10 01:21:52;;;;;;;18.13;6.50;;;8.50;99.90;;;;;;5126331;27;20156;-54
2022/11/10 01:24:19;;;;;;;18.38;6.35;;;8.40;99.90;;;;;;5133459;27;20114;-48
2022/11/10 01:26:45;;;;;;;19.15;6.95;;;8.40;99.90;;;;;;5138084;27;20051;-44
2022/11/10 01:29:11;;;;;;;22.65;6.80;;;8.40;99.90;;;;;;5137184;27;20042;-49
2022/11/10 01:31:36;;;;;;;21.10;7.43;;;8.40;99.90;;;;;;5118434;27;20395;-46
2022/11/10 01:34:02;;;;;;;20.85;7.85;;;8.40;99.90;;;;;;5136489;27;20046;-57
2022/11/10 01:36:28;;;;;;;19.80;7.28;;;8.40;99.90;;;;;;5118806;27;20046;-52
2022/11/10 01:38:54;;;;;;;22.65;7.05;;;8.30;99.90;;;;;;5137587;27;20038;-50
2022/11/10 01:41:20;;;;;;;22.95;6.78;;;8.30;99.90;;;;;;5134723;27;20113;-47
2022/11/10 01:43:45;;;;;;;23.85;6.90;;;8.40;99.90;;;;;;5137149;27;20359;-51
2022/11/10 01:46:12;;;;;;;20.40;7.05;;;8.40;99.90;;;;;;5137452;27;20043;-47
2022/11/10 01:48:52;;;;;;;21.85;7.95;;;8.40;99.90;;;;;;5137352;27;20046;-54
2022/11/10 01:51:38;;;;;;;27.83;7.63;;;8.40;99.90;;;;;;5136196;27;20467;-52
2022/11/10 01:54:08;;;;;;;25.83;7.10;;;8.50;99.90;;;;;;5136187;27;20046;-52
2022/11/10 01:56:39;;;;;;;23.83;7.28;;;8.40;99.90;;;;;;5137093;27;20081;-57
2022/11/10 01:59:11;;;;;;;16.65;5.80;;;8.40;99.90;;;;;;5137359;27;20464;-49
2022/11/10 02:01:37;;;;;;;25.77;6.45;;;8.50;99.90;;;;;;5136682;27;20054;-51
2022/11/10 02:04:06;;;;;;;25.10;6.57;;;8.40;99.90;;;;;;5136771;27;20055;-52
2022/11/10 02:06:38;;;;;;;16.80;6.07;;;8.50;99.90;;;;;;5136864;27;20142;-45
2022/11/10 02:09:04;;;;;;;21.60;6.13;;;8.50;99.90;;;;;;5136604;27;20372;-49
2022/11/10 02:11:30;;;;;;;19.75;5.35;;;8.60;99.90;;;;;;5136282;27;20047;-50
2022/11/10 02:13:56;;;;;;;21.23;6.00;;;8.70;99.90;;;;;;5135961;27;20038;-45
2022/11/10 02:16:22;;;;;;;22.10;6.20;;;8.60;99.90;;;;;;5136268;27;20161;-44
2022/11/10 02:18:48;;;;;;;23.33;5.90;;;8.70;99.90;;;;;;5136611;27;20034;-54
2022/11/10 02:21:18;;;;;;;21.20;4.78;;;8.60;99.90;;;;;;5130947;27;20043;-52
2022/11/10 02:23:53;;;;;;;22.40;5.70;;;8.70;99.90;;;;;;5127766;27;20132;-49
2022/11/10 02:26:25;;;;;;;20.75;5.60;;;8.80;99.90;;;;;;5117911;27;20047;-49
2022/11/10 02:28:50;;;;;;;20.35;4.78;;;8.90;99.90;;;;;;5136813;27;20138;-59
2022/11/10 02:31:16;;;;;;;18.80;4.75;;;8.80;99.90;;;;;;5100647;27;20114;-49
2022/11/10 02:33:42;;;;;;;20.45;5.18;;;8.80;99.90;;;;;;5135874;27;20548;-54
2022/11/10 02:36:08;;;;;;;22.98;5.18;;;8.90;99.90;;;;;;5118047;27;20039;-44
2022/11/10 02:38:34;;;;;;;23.25;5.32;;;8.90;99.90;;;;;;5117340;27;20047;-55
2022/11/10 02:40:59;;;;;;;24.40;6.07;;;8.90;99.90;;;;;;5114478;27;20113;-50
2022/11/10 02:43:25;;;;;;;22.65;5.28;;;8.90;99.90;;;;;;5136365;27;20051;-45
2022/11/10 02:45:51;;;;;;;22.88;5.50;;;9.00;99.90;;;;;;5120777;27;20424;-52
2022/11/10 02:48:17;;;;;;;22.60;4.90;;;8.90;99.90;;;;;;5121921;27;20092;-53
2022/11/10 02:50:43;;;;;;;21.95;5.47;;;9.00;99.90;;;;;;5121095;27;20520;-52
2022/11/10 02:53:09;;;;;;;18.85;5.43;;;9.00;99.90;;;;;;5140215;27;20066;-45
2022/11/10 02:55:34;;;;;;;27.00;6.18;;;9.00;99.90;;;;;;5139103;27;20171;-53
2022/11/10 02:58:00;;;;;;;20.15;5.75;;;9.00;99.90;;;;;;5139903;27;20134;-56
2022/11/10 03:00:26;;;;;;;27.58;6.53;;;8.90;99.90;;;;;;5139144;27;20096;-47
2022/11/10 03:03:00;;;;;;;22.83;5.43;;;9.00;99.90;;;;;;5139970;27;20333;-47
2022/11/10 03:05:27;;;;;;;24.10;6.10;;;8.90;99.90;;;;;;5139437;27;20046;-49
2022/11/10 03:08:03;;;;;;;24.63;5.93;;;9.00;99.90;;;;;;5139289;27;20046;-47
2022/11/10 03:10:29;;;;;;;18.50;5.95;;;8.90;99.90;;;;;;5138948;27;20409;-57
2022/11/10 03:12:57;;;;;;;19.17;5.45;;;8.90;99.90;;;;;;5120912;27;20055;-45
2022/11/10 03:15:24;;;;;;;19.95;5.85;;;8.90;99.90;;;;;;5120575;27;20038;-51
2022/11/10 03:17:50;;;;;;;22.80;5.78;;;8.90;99.90;;;;;;5139515;27;20075;-55
2022/11/10 03:20:16;;;;;;;21.55;6.50;;;8.90;99.90;;;;;;5120261;27;20535;-52
2022/11/10 03:22:42;;;;;;;21.48;5.82;;;8.80;99.90;;;;;;5124984;27;20050;-52
2022/11/10 03:25:09;;;;;;;27.88;6.07;;;8.90;99.90;;;;;;5138790;27;20472;-54
2022/11/10 03:27:34;;;;;;;27.70;7.68;;;8.90;99.90;;;;;;5139181;27;20113;-52
2022/11/10 03:30:00;;;;;;;21.75;6.25;;;8.90;99.90;;;;;;5138642;27;20035;-53
2022/11/10 03:32:26;;;;;;;25.48;5.82;;;8.80;99.90;;;;;;5120619;27;20043;-50
2022/11/10 03:34:51;;;;;;;23.10;6.40;;;8.90;99.90;;;;;;5138800;27;20035;-50
2022/11/10 03:37:17;;;;;;;22.58;5.97;;;8.90;99.90;;;;;;5119935;27;20035;-50
2022/11/10 03:39:42;;;;;;;25.20;6.15;;;8.80;99.90;;;;;;5138901;27;20103;-55
2022/11/10 03:42:08;;;;;;;21.88;6.22;;;8.80;99.90;;;;;;5135608;27;20384;-53
2022/11/10 03:44:34;;;;;;;23.55;6.35;;;8.80;99.90;;;;;;5138702;27;20392;-57
2022/11/10 03:47:01;;;;;;;23.55;6.28;;;8.80;99.90;;;;;;5138881;27;20034;-51
2022/11/10 03:49:27;;;;;;;24.00;6.45;;;8.90;99.90;;;;;;5139625;27;20042;-48
2022/11/10 03:51:53;;;;;;;30.02;7.22;;;9.00;99.90;;;;;;5118970;27;20803;-54
2022/11/10 03:54:19;;;;;;;24.10;7.10;;;9.00;99.90;;;;;;5138363;27;20035;-53
2022/11/10 03:56:44;;;;;;;25.95;6.43;;;9.00;99.90;;;;;;5137745;27;20445;-51
2022/11/10 03:59:10;;;;;;;27.30;6.18;;;9.00;99.90;;;;;;5138891;27;20498;-51
2022/11/10 04:01:35;;;;;;;17.75;6.22;;;9.00;99.90;;;;;;5137808;27;20050;-53
2022/11/10 04:04:01;;;;;;;21.77;5.95;;;9.10;99.90;;;;;;5138066;27;20466;-52
2022/11/10 04:09:11;;;;;;;24.67;6.68;;;9.00;99.90;;;;;;5129414;27;20053;-54
2022/11/10 04:17:05;;;;;;;24.02;6.30;;;8.90;99.90;;;;;;5138403;27;20461;-46
2022/11/10 04:19:31;;;;;;;27.45;7.05;;;9.10;99.90;;;;;;5138204;27;20043;-56
2022/11/10 04:21:57;;;;;;;26.58;7.07;;;9.10;99.90;;;;;;5126895;27;20047;-52
2022/11/10 04:24:22;;;;;;;30.95;6.18;;;9.10;99.90;;;;;;5115401;27;20051;-50
2022/11/10 04:26:48;;;;;;;29.30;6.45;;;9.20;99.90;;;;;;5138618;27;20123;-59
2022/11/10 04:29:18;;;;;;;20.92;5.70;;;9.00;99.90;;;;;;5138156;27;20551;-54
2022/11/10 04:31:44;;;;;;;27.75;6.57;;;9.20;99.90;;;;;;5137693;27;20091;-51
2022/11/10 04:34:12;;;;;;;23.27;5.88;;;9.20;99.90;;;;;;5137434;27;20308;-48
2022/11/10 04:36:40;;;;;;;27.45;5.82;;;9.20;99.90;;;;;;5120244;27;20103;-53
2022/11/10 04:39:06;;;;;;;25.08;5.88;;;9.20;99.90;;;;;;5137839;27;20083;-46
2022/11/10 04:41:32;;;;;;;20.58;5.93;;;9.20;99.90;;;;;;5134448;27;20041;-49
2022/11/10 04:43:59;;;;;;;24.75;6.32;;;9.10;99.90;;;;;;5137148;27;20690;-50
2022/11/10 04:46:39;;;;;;;23.63;5.57;;;9.20;99.90;;;;;;5137887;27;20573;-53
2022/11/10 04:49:06;;;;;;;23.02;6.78;;;9.20;99.90;;;;;;5124556;27;20594;-52
2022/11/10 04:51:34;;;;;;;28.30;5.95;;;9.20;99.90;;;;;;5136775;27;20291;-50
2022/11/10 04:54:01;;;;;;;26.92;5.85;;;9.20;99.90;;;;;;5136983;27;20042;-49
2022/11/10 04:56:27;;;;;;;18.90;5.82;;;9.30;99.90;;;;;;5137090;27;20297;-59
2022/11/10 04:58:53;;;;;;;28.73;5.78;;;9.10;99.90;;;;;;5137563;27;20326;-53
2022/11/10 05:01:22;;;;;;;18.15;5.88;;;9.20;99.90;;;;;;5136969;27;20076;-49
2022/11/10 05:03:49;;;;;;;25.95;6.32;;;9.10;99.90;;;;;;5137712;27;20116;-57
2022/11/10 05:06:15;;;;;;;27.58;6.28;;;9.30;99.90;;;;;;5135692;27;20047;-59
2022/11/10 05:08:42;;;;;;;23.98;6.28;;;9.20;99.90;;;;;;5132907;27;20129;-49
2022/11/10 05:11:08;;;;;;;21.13;5.88;;;9.20;99.90;;;;;;5117133;27;20077;-54
2022/11/10 05:13:34;;;;;;;24.08;6.32;;;9.20;99.90;;;;;;5136145;27;20048;-54
2022/11/10 05:16:00;;;;;;;22.10;5.00;;;9.20;99.90;;;;;;5137325;27;20046;-54
2022/11/10 05:18:26;;;;;;;26.58;5.60;;;9.20;99.90;;;;;;5118847;27;20122;-43
2022/11/10 05:20:52;;;;;;;37.55;7.43;;;9.20;99.90;;;;;;5099195;27;20473;-51
2022/11/10 05:23:37;;;;;;;23.98;5.75;;;9.10;99.90;;;;;;5124718;27;20368;-50
2022/11/10 05:26:14;;;;;;;25.80;7.00;;;9.20;99.90;;;;;;5137050;27;20057;-53
2022/11/10 05:28:42;;;;;;;32.20;6.47;;;9.20;99.90;;;;;;5137515;27;20046;-53
2022/11/10 05:31:09;;;;;;;31.67;6.85;;;9.20;99.90;;;;;;5137251;27;20413;-46
2022/11/10 05:33:36;;;;;;;29.52;6.25;;;9.20;99.90;;;;;;5136431;27;20053;-49
2022/11/10 05:36:03;;;;;;;28.52;7.70;;;9.10;99.90;;;;;;5136931;27;20405;-52
2022/11/10 05:38:29;;;;;;;23.88;6.35;;;9.10;99.90;;;;;;5118600;27;20552;-55
2022/11/10 05:40:55;;;;;;;20.83;6.50;;;9.10;99.90;;;;;;5134417;27;20042;-53
2022/11/10 05:43:21;;;;;;;28.15;6.45;;;9.00;99.90;;;;;;5135900;27;20054;-56
2022/11/10 05:45:46;;;;;;;22.23;6.18;;;9.00;99.90;;;;;;5137250;27;20499;-51
2022/11/10 05:48:12;;;;;;;30.63;6.25;;;9.00;99.90;;;;;;5136275;27;20579;-58
2022/11/10 05:50:38;;;;;;;24.25;6.50;;;8.90;99.90;;;;;;5117307;27;20124;-45
2022/11/10 05:53:03;;;;;;;25.58;6.28;;;9.00;99.90;;;;;;5118262;27;20054;-53
2022/11/10 05:55:29;;;;;;;28.30;7.57;;;8.90;99.90;;;;;;5135881;27;20043;-51
2022/11/10 05:57:56;;;;;;;29.55;8.73;;;8.80;99.90;;;;;;5136618;27;20053;-47
2022/11/10 06:00:24;;;;;;;27.17;7.88;;;8.80;99.90;;;;;;5135786;27;20121;-50
2022/11/10 06:03:17;;;;;;;33.78;8.23;;;8.90;99.90;;;;;;5117216;27;20117;-56
2022/11/10 06:05:43;;;;;;;34.75;8.38;;;8.80;99.90;;;;;;5132087;27;20137;-51
2022/11/10 06:08:10;;;;;;;28.98;7.32;;;9.00;99.90;;;;;;5136225;27;20604;-51
2022/11/10 06:10:36;;;;;;;29.20;7.40;;;8.90;99.90;;;;;;5135592;27;20084;-41
2022/11/10 06:13:03;;;;;;;33.70;8.45;;;8.90;99.90;;;;;;5136389;27;20065;-52
2022/11/10 06:15:29;;;;;;;25.25;7.57;;;8.80;99.90;;;;;;5136609;27;20540;-58
2022/11/10 06:17:55;;;;;;;37.08;8.80;;;8.90;99.90;;;;;;5136825;27;20110;-49
2022/11/10 06:20:22;;;;;;;38.75;8.18;;;8.90;99.90;;;;;;5139272;27;20589;-51
2022/11/10 06:23:03;;;;;;;27.92;7.72;;;8.80;99.90;;;;;;5128993;27;20614;-53
2022/11/10 06:25:30;;;;;;;32.20;8.90;;;8.80;99.90;;;;;;5132571;27;20078;-57
2022/11/10 06:27:56;;;;;;;34.42;8.00;;;8.90;99.90;;;;;;5140043;27;20071;-49
2022/11/10 06:30:22;;;;;;;31.48;7.93;;;8.80;99.90;;;;;;5138906;27;20039;-53
2022/11/10 06:32:48;;;;;;;31.58;8.60;;;9.00;99.90;;;;;;5141207;27;20398;-49
2022/11/10 06:35:14;;;;;;;31.67;8.70;;;8.90;99.90;;;;;;5139618;27;20046;-55
2022/11/10 06:37:40;;;;;;;27.27;7.47;;;9.00;99.90;;;;;;5126700;27;20050;-54
2022/11/10 06:40:07;;;;;;;27.15;7.18;;;8.90;99.90;;;;;;5119388;27;20051;-47
2022/11/10 06:42:33;;;;;;;32.10;6.60;;;8.90;99.90;;;;;;5122204;27;20113;-54
2022/11/10 06:44:59;;;;;;;25.85;6.63;;;9.00;99.90;;;;;;5139556;27;20045;-56
2022/11/10 06:47:25;;;;;;;34.30;6.90;;;9.00;99.90;;;;;;5141189;27;20030;-46
2022/11/10 06:49:51;;;;;;;29.52;6.93;;;9.10;99.90;;;;;;5140223;27;20087;-50
2022/11/10 06:52:16;;;;;;;32.00;7.40;;;9.10;99.90;;;;;;5141282;27;20415;-50
2022/11/10 06:54:42;;;;;;;34.22;8.85;;;9.10;99.90;;;;;;5121577;27;20118;-48
2022/11/10 06:57:08;;;;;;;29.58;7.47;;;9.20;99.90;;;;;;5140322;27;20120;-54
2022/11/10 06:59:33;;;;;;;22.90;7.05;;;9.10;99.90;;;;;;5138884;27;20039;-57
2022/11/10 07:01:59;;;;;;;39.00;8.80;;;9.10;99.90;;;;;;5140158;27;20501;-48
2022/11/10 07:04:24;;;;;;;30.30;7.70;;;9.10;99.90;;;;;;5139031;27;20487;-50
2022/11/10 07:06:50;;;;;;;32.22;8.35;;;9.10;99.90;;;;;;5140185;27;20448;-57
2022/11/10 07:09:16;;;;;;;23.65;6.88;;;9.10;99.90;;;;;;5139802;27;20483;-49
2022/11/10 07:11:42;;;;;;;31.67;7.40;;;9.00;99.90;;;;;;5138956;27;20480;-45
2022/11/10 07:14:08;;;;;;;29.02;7.50;;;9.10;99.90;;;;;;5102954;27;20050;-45
2022/11/10 07:16:34;;;;;;;30.63;8.13;;;9.10;99.90;;;;;;5120708;27;20515;-50
2022/11/10 07:18:59;;;;;;;28.40;8.95;;;9.10;99.90;;;;;;5139107;27;20125;-52
2022/11/10 07:21:25;;;;;;;29.88;7.85;;;9.10;99.90;;;;;;5132762;27;20065;-46
2022/11/10 07:23:50;;;;;;;32.63;8.02;;;9.10;99.90;;;;;;5130956;27;20043;-54
2022/11/10 07:26:16;;;;;;;32.08;8.07;;;9.10;99.90;;;;;;5139361;27;20161;-47
2022/11/10 07:28:42;;;;;;;29.65;7.97;;;9.00;99.90;;;;;;5139518;27;20047;-55
2022/11/10 07:31:08;;;;;;;33.05;7.50;;;9.10;99.90;;;;;;5120092;27;20038;-52
2022/11/10 07:33:33;;;;;;;31.65;7.60;;;9.10;99.90;;;;;;5138868;27;20042;-49
2022/11/10 07:36:02;;;;;;;35.03;7.47;;;9.00;99.90;;;;;;5139188;27;20531;-55
2022/11/10 07:38:28;;;;;;;34.20;8.10;;;9.10;99.90;;;;;;5103897;27;20129;-54
2022/11/10 07:40:54;;;;;;;30.90;7.75;;;9.10;99.90;;;;;;5136157;27;20038;-46
2022/11/10 07:43:22;;;;;;;29.75;7.45;;;9.20;99.90;;;;;;5102717;27;20043;-57
2022/11/10 07:45:49;;;;;;;21.77;6.63;;;9.10;99.90;;;;;;5120594;27;20046;-54
2022/11/10 07:48:15;;;;;;;34.88;7.55;;;9.20;99.90;;;;;;5139074;27;20038;-51
2022/11/10 07:50:41;;;;;;;36.83;8.02;;;9.10;99.90;;;;;;5138268;27;20099;-48
2022/11/10 07:53:08;;;;;;;27.88;7.90;;;9.20;99.90;;;;;;5137831;27;20043;-53
2022/11/10 07:55:35;;;;;;;28.80;7.30;;;9.40;99.90;;;;;;5138549;27;20057;-55
2022/11/10 07:58:01;;;;;;;38.67;8.57;;;9.40;99.90;;;;;;5119872;27;20294;-46
2022/11/10 08:00:27;;;;;;;29.20;8.48;;;9.40;99.90;;;;;;5137770;27;20416;-53
2022/11/10 08:02:52;;;;;;;35.03;9.23;;;9.60;99.90;;;;;;5138179;27;20532;-56
2022/11/10 08:05:18;;;;;;;34.60;8.07;;;9.60;99.90;;;;;;5120045;27;20501;-52
2022/11/10 08:07:44;;;;;;;36.45;8.60;;;9.70;99.90;;;;;;5118189;27;20057;-57
2022/11/10 08:10:10;;;;;;;27.83;7.93;;;9.80;99.90;;;;;;5118601;27;20217;-49
2022/11/10 08:12:36;;;;;;;30.52;8.05;;;9.90;99.90;;;;;;5118712;27;20039;-54
2022/11/10 08:15:02;;;;;;;30.48;8.40;;;10.00;99.90;;;;;;5118004;27;20496;-56
2022/11/10 08:17:28;;;;;;;24.15;7.70;;;10.10;99.90;;;;;;5129172;27;20567;-51
2022/11/10 08:19:54;;;;;;;27.80;7.18;;;10.20;99.90;;;;;;5130898;27;20163;-49
2022/11/10 08:22:19;;;;;;;25.85;6.55;;;10.20;99.90;;;;;;5136001;27;20083;-56
2022/11/10 08:24:45;;;;;;;30.52;7.75;;;10.30;99.90;;;;;;5123446;27;20039;-54
2022/11/10 08:27:10;;;;;;;33.15;7.20;;;10.40;99.90;;;;;;5119014;27;20039;-50
2022/11/10 08:29:36;;;;;;;31.13;7.72;;;10.40;99.90;;;;;;5118314;27;20453;-45
2022/11/10 08:32:02;;;;;;;25.15;9.00;;;10.40;99.90;;;;;;5102536;27;20833;-58
2022/11/10 08:34:27;;;;;;;24.38;7.72;;;10.40;99.90;;;;;;5115090;27;20094;-59
2022/11/10 08:36:53;;;;;;;34.95;7.93;;;10.40;99.90;;;;;;5139764;27;20061;-55
2022/11/10 08:39:19;;;;;;;29.00;7.30;;;10.40;99.90;;;;;;5135604;27;20088;-53
2022/11/10 08:41:45;;;;;;;25.08;7.38;;;10.30;99.90;;;;;;5134869;27;20031;-50
2022/11/10 08:44:12;;;;;;;30.27;7.38;;;10.40;99.90;;;;;;5137578;27;20035;-53
2022/11/10 08:46:37;;;;;;;26.58;9.52;;;10.30;99.90;;;;;;5118336;27;20053;-51
2022/11/10 08:49:03;;;;;;;30.75;8.32;;;10.40;99.90;;;;;;5137320;27;20066;-54
2022/11/10 08:51:29;;;;;;;27.33;7.68;;;10.30;99.90;;;;;;5136513;27;20039;-56
2022/11/10 08:53:54;;;;;;;29.08;8.93;;;10.30;99.90;;;;;;5136892;27;20080;-51
2022/11/10 08:56:20;;;;;;;32.75;7.38;;;10.30;99.90;;;;;;5137031;27;20039;-56
2022/11/10 08:58:46;;;;;;;26.27;8.60;;;10.40;99.90;;;;;;5116149;27;20429;-54
2022/11/10 09:01:11;;;;;;;35.88;9.05;;;10.50;99.90;;;;;;5130675;27;20047;-52
2022/11/10 09:03:37;;;;;;;30.02;8.07;;;10.60;99.90;;;;;;5108580;27;20075;-51
2022/11/10 09:06:03;;;;;;;29.15;7.95;;;10.70;99.90;;;;;;5137081;27;20041;-45
2022/11/10 09:08:32;;;;;;;31.10;8.13;;;10.80;99.90;;;;;;5137264;27;20038;-57
2022/11/10 09:11:03;;;;;;;28.23;8.23;;;11.00;99.90;;;;;;5118935;27;20307;-57
2022/11/10 09:13:29;;;;;;;38.70;9.60;;;11.00;99.90;;;;;;5136560;27;20035;-58
2022/11/10 09:15:58;;;;;;;29.73;8.32;;;11.10;99.90;;;;;;5137021;27;20038;-52
2022/11/10 09:18:24;;;;;;;25.27;7.18;;;11.10;99.90;;;;;;5136955;27;20357;-50
2022/11/10 09:20:50;;;;;;;27.52;7.50;;;11.10;99.90;;;;;;5136600;27;20042;-55
2022/11/10 09:23:17;;;;;;;34.95;8.77;;;11.20;99.90;;;;;;5103810;27;20046;-46
2022/11/10 09:25:49;;;;;;;31.95;7.55;;;11.30;99.90;;;;;;5118665;27;20038;-49
2022/11/10 09:28:16;;;;;;;33.28;8.13;;;11.30;99.90;;;;;;5106105;27;20050;-50
2022/11/10 09:30:45;;;;;;;28.52;7.72;;;11.20;99.90;;;;;;5136820;27;20131;-52
2022/11/10 09:33:10;;;;;;;33.63;8.15;;;11.20;99.90;;;;;;5136267;27;20039;-48
2022/11/10 09:35:36;;;;;;;23.42;7.93;;;11.30;99.90;;;;;;5118042;27;20083;-48
2022/11/10 09:38:02;;;;;;;29.10;8.20;;;11.20;99.90;;;;;;5137009;27;20118;-47
2022/11/10 09:40:57;;;;;;;30.02;7.18;;;11.30;99.90;;;;;;5132288;27;20511;-53
2022/11/10 09:43:46;;;;;;;27.50;6.55;;;11.50;99.90;;;;;;5126826;27;20447;-46
2022/11/10 09:46:36;;;;;;;23.27;7.43;;;11.60;99.90;;;;;;5105573;27;20489;-54
2022/11/10 09:49:08;;;;;;;24.02;6.57;;;11.70;99.90;;;;;;5136964;27;20415;-46
2022/11/10 09:51:38;;;;;;;26.48;7.05;;;11.90;99.90;;;;;;5136560;27;20067;-52
2022/11/10 09:54:15;;;;;;;27.08;6.55;;;12.00;99.90;;;;;;5134964;27;20039;-51
2022/11/10 09:56:41;;;;;;;24.65;6.68;;;11.90;99.90;;;;;;5136317;27;20508;-50
2022/11/10 09:59:18;;;;;;;23.20;5.10;;;12.00;99.90;;;;;;5136871;27;20046;-46
2022/11/10 10:02:12;;;;;;;24.88;6.10;;;12.10;99.90;;;;;;5127610;27;20099;-54
2022/11/10 10:04:49;;;;;;;26.98;6.40;;;12.20;99.90;;;;;;5121871;27;20625;-52
2022/11/10 10:07:35;;;;;;;25.55;5.68;;;12.30;99.90;;;;;;5136188;27;20073;-53
2022/11/10 10:10:11;;;;;;;22.65;5.65;;;12.30;99.90;;;;;;5117399;27;20047;-52
2022/11/10 10:13:01;;;;;;;25.15;6.57;;;12.40;99.90;;;;;;5137131;27;20527;-50
2022/11/10 10:15:43;;;;;;;24.20;6.38;;;12.40;99.90;;;;;;5126456;27;20084;-53
2022/11/10 10:18:22;;;;;;;31.05;6.85;;;12.50;99.90;;;;;;5134277;27;20050;-46
2022/11/10 10:20:59;;;;;;;21.45;5.88;;;12.60;99.90;;;;;;5125171;27;20442;-44
2022/11/10 10:23:33;;;;;;;19.00;6.82;;;12.60;99.90;;;;;;5127347;27;20479;-48
2022/11/10 10:25:59;;;;;;;24.63;7.07;;;12.50;99.90;;;;;;5135277;27;20038;-56
2022/11/10 10:28:36;;;;;;;24.95;6.63;;;12.50;99.90;;;;;;5136456;27;20038;-55
2022/11/10 10:31:14;;;;;;;24.83;6.90;;;12.50;99.90;;;;;;5136093;27;20334;-55
2022/11/10 10:33:40;;;;;;;20.90;6.35;;;12.50;99.90;;;;;;5136032;27;20035;-47
2022/11/10 10:36:28;;;;;;;25.58;7.10;;;12.50;99.90;;;;;;5136124;27;20046;-50
2022/11/10 10:39:01;;;;;;;22.25;7.40;;;12.50;99.90;;;;;;5117327;27;20058;-54
2022/11/10 10:41:32;;;;;;;23.17;7.07;;;12.40;99.90;;;;;;5131514;27;20139;-47
2022/11/10 10:44:00;;;;;;;19.23;6.72;;;12.40;99.90;;;;;;5135760;27;20436;-47
2022/11/10 10:46:28;;;;;;;24.13;6.72;;;12.40;99.90;;;;;;5136454;27;20820;-49
2022/11/10 10:49:20;;;;;;;23.77;6.78;;;12.50;99.90;;;;;;5136414;27;20051;-47
2022/11/10 10:51:46;;;;;;;26.30;6.43;;;12.60;99.90;;;;;;5136940;27;20384;-50
2022/11/10 10:54:24;;;;;;;30.95;7.07;;;12.60;99.90;;;;;;5117518;27;20059;-50
2022/11/10 10:56:49;;;;;;;27.65;8.05;;;12.60;99.90;;;;;;5135864;27;20095;-52
2022/11/10 10:59:21;;;;;;;23.90;6.65;;;12.70;99.90;;;;;;5135578;27;20043;-46
2022/11/10 11:01:51;;;;;;;21.70;5.65;;;12.60;99.90;;;;;;5136762;27;20087;-49
2022/11/10 11:04:25;;;;;;;27.38;6.15;;;12.70;99.90;;;;;;5136263;27;20114;-58
2022/11/10 11:06:57;;;;;;;21.02;5.28;;;12.70;99.90;;;;;;5139545;27;20464;-44
2022/11/10 11:09:29;;;;;;;23.73;5.28;;;12.70;99.90;;;;;;5139015;27;20118;-52
2022/11/10 11:12:07;;;;;;;23.50;5.78;;;12.70;99.90;;;;;;5139951;27;20122;-53
2022/11/10 11:14:32;;;;;;;25.23;5.63;;;12.70;99.90;;;;;;5139556;27;20560;-54
2022/11/10 11:17:16;;;;;;;24.67;7.00;;;12.80;99.90;;;;;;5140673;27;20038;-58
2022/11/10 11:19:42;;;;;;;22.48;5.72;;;12.80;99.90;;;;;;5139138;27;20234;-50
2022/11/10 11:22:33;;;;;;;21.42;5.85;;;12.80;99.90;;;;;;5110089;27;20050;-54
2022/11/10 11:25:07;;;;;;;26.60;5.82;;;12.80;99.90;;;;;;5125707;27;20035;-58
2022/11/10 11:27:45;;;;;;;26.48;6.45;;;12.80;99.90;;;;;;5138061;27;20628;-51
2022/11/10 11:30:17;;;;;;;24.70;5.18;;;12.70;99.90;;;;;;5110007;27;20059;-48
2022/11/10 11:32:57;;;;;;;23.67;5.30;;;12.70;99.90;;;;;;5131254;27;20034;-61
2022/11/10 11:35:36;;;;;;;23.98;4.75;;;12.70;99.90;;;;;;5121071;27;20046;-54
2022/11/10 11:38:37;;;;;;;21.35;4.85;;;12.70;99.90;;;;;;5127249;27;20053;-50
2022/11/10 11:41:23;;;;;;;22.58;4.97;;;12.70;99.90;;;;;;5134488;27;20500;-49
2022/11/10 11:44:06;;;;;;;20.23;5.47;;;12.70;99.90;;;;;;5138869;27;20035;-53
2022/11/10 11:47:07;;;;;;;15.75;4.45;;;12.70;99.90;;;;;;5139629;27;20038;-53
2022/11/10 11:49:54;;;;;;;22.23;4.30;;;12.70;99.90;;;;;;5023483;28;20524;-44
2022/11/10 11:52:29;;;;;;;21.60;4.50;;;12.70;99.90;;;;;;5032282;28;20073;-56
2022/11/10 11:55:13;;;;;;;42.60;7.38;;;12.70;99.90;;;;;;5031155;28;20112;-51
2022/11/10 11:57:56;;;;;;;25.15;3.85;;;12.60;99.90;;;;;;5032419;28;20095;-55
2022/11/10 12:00:22;;;;;;;22.33;4.82;;;12.70;99.90;;;;;;5032090;28;20475;-52
2022/11/10 12:03:02;;;;;;;20.45;5.07;;;12.70;99.90;;;;;;5033511;28;20044;-46
2022/11/10 12:06:09;;;;;;;25.88;4.57;;;12.70;99.90;;;;;;5032221;28;20041;-47
2022/11/10 12:08:55;;;;;;;22.65;4.30;;;12.60;99.90;;;;;;4974317;28;20488;-49
2022/11/10 12:11:56;;;;;;;14.00;4.93;;;12.60;99.90;;;;;;4973742;28;20088;-56
2022/11/10 12:14:52;;;;;;;27.33;4.70;;;12.50;99.90;;;;;;4934968;28;20085;-45
2022/11/10 12:17:24;;;;;;;21.13;4.55;;;12.50;99.90;;;;;;4935412;28;20134;-47
2022/11/10 12:20:05;;;;;;;21.10;4.72;;;12.50;99.90;;;;;;4935296;28;20055;-52
2022/11/10 12:23:09;;;;;;;20.73;3.95;;;12.50;99.90;;;;;;4935094;28;20581;-56
2022/11/10 12:25:35;;;;;;;;;;;12.50;99.90;;;;;;4949609;28;20178;-54
2022/11/10 12:28:15;;;;;;;18.23;4.63;;;12.60;99.90;;;;;;4961562;28;20695;-47
2022/11/10 12:30:42;;;;;;;24.02;4.47;;;12.60;99.90;;;;;;4974055;28;20050;-56
2022/11/10 12:33:33;;;;;;;28.13;4.50;;;12.60;99.90;;;;;;4973949;28;20130;-49
2022/11/10 12:36:04;;;;;;;17.50;4.00;;;12.70;99.90;;;;;;4968489;28;20585;-57
2022/11/10 12:39:05;;;;;;;19.08;4.30;;;12.70;99.90;;;;;;4965202;28;20065;-51
2022/11/10 12:41:40;;;;;;;21.33;4.65;;;12.80;99.90;;;;;;4957814;28;20065;-45
2022/11/10 12:44:20;;;;;;;21.90;4.38;;;12.90;99.90;;;;;;4960718;28;20066;-44
2022/11/10 12:46:49;;;;;;;19.17;4.13;;;12.90;99.90;;;;;;4993893;28;20385;-54
2022/11/10 12:49:22;;;;;;;19.63;4.35;;;12.90;99.90;;;;;;4992516;28;20079;-47
2022/11/10 12:52:01;;;;;;;;;;;13.00;99.90;;;;;;5022655;28;20670;-52
2022/11/10 12:54:27;;;;;;;18.98;4.22;;;13.00;99.90;;;;;;5031082;28;20441;-52
2022/11/10 12:57:01;;;;;;;21.60;3.80;;;13.00;99.90;;;;;;5040186;28;20099;-54
2022/11/10 12:59:32;;;;;;;15.25;4.13;;;13.10;99.90;;;;;;5043788;28;20056;-49
2022/11/10 13:02:03;;;;;;;22.48;4.25;;;13.20;99.90;;;;;;5118955;27;20455;-57
2022/11/10 13:04:30;;;;;;;24.73;6.18;;;13.20;99.90;;;;;;5136366;27;20046;-52
2022/11/10 13:06:59;;;;;;;20.05;4.45;;;13.20;99.90;;;;;;5130566;27;20291;-43